Time,TemperatureF,DewpointF,PressureIn,WindDirection,WindDirectionDegrees,WindSpeedMPH,WindSpeedGustMPH,Humidity,HourlyPrecipIn,Conditions,Clouds,dailyrainin,SoftwareType,DateUTC
2013-06-24 00:01:00,76.3,67.0,30.00,WSW,248,0.0,0.0,73,0.00,,---,0.00,VWS V14.00,2013-06-24 04:01:00,
2013-06-24 00:03:00,76.1,66.8,30.00,WSW,248,0.0,0.0,73,0.00,,---,0.00,VWS V14.00,2013-06-24 04:03:00,
2013-06-24 00:08:00,75.9,66.7,30.00,WSW,248,0.0,0.0,73,0.00,,---,0.00,VWS V14.00,2013-06-24 04:08:00,
2013-06-24 00:13:00,75.7,66.5,30.00,WSW,248,0.0,0.0,73,0.00,,---,0.00,VWS V14.00,2013-06-24 04:13:00,
2013-06-24 00:18:00,75.7,66.9,30.00,WSW,248,0.0,0.0,74,0.00,,---,0.00,VWS V14.00,2013-06-24 04:18:00,
2013-06-24 00:23:00,75.4,66.5,30.00,WSW,248,0.0,0.0,74,0.00,,---,0.00,VWS V14.00,2013-06-24 04:23:00,
2013-06-24 00:28:00,75.4,66.9,30.00,WSW,248,0.0,0.0,75,0.00,,---,0.00,VWS V14.00,2013-06-24 04:28:00,
2013-06-24 00:33:00,75.2,66.7,30.00,WSW,248,0.0,0.0,75,0.00,,---,0.00,VWS V14.00,2013-06-24 04:33:00,
2013-06-24 00:38:00,75.0,66.9,30.00,SSE,158,2.2,2.2,76,0.00,,---,0.00,VWS V14.00,2013-06-24 04:38:00,
2013-06-24 00:43:00,74.8,66.8,30.03,SSE,158,0.0,0.0,76,0.00,,---,0.00,VWS V14.00,2013-06-24 04:43:00,
2013-06-24 00:48:00,74.7,67.0,30.03,SSE,158,0.0,0.0,77,0.00,,---,0.00,VWS V14.00,2013-06-24 04:48:00,
2013-06-24 00:53:00,74.5,67.2,30.03,SSE,158,1.3,1.3,78,0.00,,---,0.00,VWS V14.00,2013-06-24 04:53:00,
2013-06-24 00:58:00,74.5,67.6,30.03,SW,225,0.0,2.5,79,0.00,,---,0.00,VWS V14.00,2013-06-24 04:58:00,
2013-06-24 01:03:00,74.5,67.6,30.03,SSW,202,0.0,1.6,79,0.00,,---,0.00,VWS V14.00,2013-06-24 05:03:00,
2013-06-24 01:08:00,74.3,67.4,30.06,WSW,248,1.1,1.1,79,0.00,,---,0.00,VWS V14.00,2013-06-24 05:08:00,
2013-06-24 01:13:00,74.1,67.2,30.06,WSW,248,0.9,1.1,79,0.00,,---,0.00,VWS V14.00,2013-06-24 05:13:00,
2013-06-24 01:18:00,74.1,67.6,30.06,SSW,202,0.0,1.3,80,0.00,,---,0.00,VWS V14.00,2013-06-24 05:18:00,
2013-06-24 01:23:00,73.9,67.4,30.06,WNW,292,1.6,2.7,80,0.00,,---,0.00,VWS V14.00,2013-06-24 05:23:00,
2013-06-24 01:28:00,73.9,67.4,30.06,WSW,248,0.9,2.0,80,0.00,,---,0.00,VWS V14.00,2013-06-24 05:28:00,
2013-06-24 01:33:00,73.8,67.2,30.06,WSW,248,0.0,2.0,80,0.00,,---,0.00,VWS V14.00,2013-06-24 05:33:00,
2013-06-24 01:38:00,73.6,67.0,30.03,West,270,0.0,1.1,80,0.00,,---,0.00,VWS V14.00,2013-06-24 05:38:00,
2013-06-24 01:43:00,73.6,67.0,30.03,SW,225,0.0,0.0,80,0.00,,---,0.00,VWS V14.00,2013-06-24 05:43:00,
2013-06-24 01:48:00,73.4,66.9,30.03,WSW,248,0.0,1.3,80,0.00,,---,0.00,VWS V14.00,2013-06-24 05:48:00,
2013-06-24 01:54:00,73.4,66.9,30.03,SW,225,0.0,0.9,80,0.00,,---,0.00,VWS V14.00,2013-06-24 05:54:00,
2013-06-24 01:59:00,73.2,67.1,30.03,SSW,202,0.0,0.0,81,0.00,,---,0.00,VWS V14.00,2013-06-24 05:59:00,
2013-06-24 02:04:00,73.0,66.9,30.03,SSW,202,0.0,0.0,81,0.00,,---,0.00,VWS V14.00,2013-06-24 06:04:00,
2013-06-24 02:09:00,73.0,66.9,30.03,SSE,158,0.0,0.0,81,0.00,,---,0.00,VWS V14.00,2013-06-24 06:09:00,
2013-06-24 02:14:00,72.9,66.7,30.03,SSW,202,1.3,1.3,81,0.00,,---,0.00,VWS V14.00,2013-06-24 06:14:00,
2013-06-24 02:19:00,72.9,66.7,30.03,SW,225,0.0,1.3,81,0.00,,---,0.00,VWS V14.00,2013-06-24 06:19:00,
2013-06-24 02:24:00,72.7,66.5,30.03,SW,225,0.0,0.0,81,0.00,,---,0.00,VWS V14.00,2013-06-24 06:24:00,
2013-06-24 02:29:00,72.5,66.3,30.03,SW,225,0.0,0.0,81,0.00,,---,0.00,VWS V14.00,2013-06-24 06:29:00,
2013-06-24 02:34:00,72.3,66.5,30.03,SW,225,0.0,1.1,82,0.00,,---,0.00,VWS V14.00,2013-06-24 06:34:00,
2013-06-24 02:40:00,72.3,66.5,30.03,SW,225,0.0,0.0,82,0.00,,---,0.00,VWS V14.00,2013-06-24 06:40:00,
2013-06-24 02:45:00,72.1,66.3,30.03,SW,225,0.0,0.0,82,0.00,,---,0.00,VWS V14.00,2013-06-24 06:45:00,
2013-06-24 02:50:00,72.0,66.5,30.03,SW,225,0.0,0.0,83,0.00,,---,0.00,VWS V14.00,2013-06-24 06:50:00,
2013-06-24 02:55:00,71.8,66.7,30.00,SW,225,0.0,0.0,84,0.00,,---,0.00,VWS V14.00,2013-06-24 06:55:00,
2013-06-24 03:00:00,71.8,66.7,30.00,SW,225,0.0,0.0,84,0.00,,---,0.00,VWS V14.00,2013-06-24 07:00:00,
2013-06-24 03:05:00,71.6,66.5,30.00,South,180,0.0,0.0,84,0.00,,---,0.00,VWS V14.00,2013-06-24 07:05:00,
2013-06-24 03:11:00,71.6,66.5,30.00,South,180,0.0,0.0,84,0.00,,---,0.00,VWS V14.00,2013-06-24 07:11:00,
2013-06-24 03:16:00,71.4,66.7,30.00,SE,135,0.0,1.1,85,0.00,,---,0.00,VWS V14.00,2013-06-24 07:16:00,
2013-06-24 03:21:00,71.4,66.7,30.00,SSW,202,0.0,0.0,85,0.00,,---,0.00,VWS V14.00,2013-06-24 07:21:00,
2013-06-24 03:26:00,71.2,66.5,30.00,SSW,202,0.0,0.0,85,0.00,,---,0.00,VWS V14.00,2013-06-24 07:26:00,
2013-06-24 03:31:00,71.2,66.5,30.00,SSW,202,0.0,0.0,85,0.00,,---,0.00,VWS V14.00,2013-06-24 07:31:00,
2013-06-24 03:37:00,71.1,66.3,30.00,SSW,202,0.0,0.0,85,0.00,,---,0.00,VWS V14.00,2013-06-24 07:37:00,
2013-06-24 03:42:00,71.1,66.3,30.00,SW,225,0.0,1.6,85,0.00,,---,0.00,VWS V14.00,2013-06-24 07:42:00,
2013-06-24 03:47:00,70.9,66.2,30.00,SW,225,0.0,0.0,85,0.00,,---,0.00,VWS V14.00,2013-06-24 07:47:00,
2013-06-24 03:52:00,70.9,66.2,30.00,SW,225,0.0,0.0,85,0.00,,---,0.00,VWS V14.00,2013-06-24 07:52:00,
2013-06-24 03:58:00,70.9,66.2,30.00,SW,225,0.0,0.0,85,0.00,,---,0.00,VWS V14.00,2013-06-24 07:58:00,
2013-06-24 04:03:00,70.7,66.0,30.00,SSE,158,2.5,3.4,85,0.00,,---,0.00,VWS V14.00,2013-06-24 08:03:00,
2013-06-24 04:08:00,70.7,66.3,30.00,West,270,0.0,2.5,86,0.00,,---,0.00,VWS V14.00,2013-06-24 08:08:00,
2013-06-24 04:13:00,70.7,66.3,30.00,ESE,112,2.5,3.1,86,0.00,,---,0.00,VWS V14.00,2013-06-24 08:13:00,
2013-06-24 04:18:00,70.7,66.0,30.00,SE,135,0.0,0.0,85,0.00,,---,0.00,VWS V14.00,2013-06-24 08:18:00,
2013-06-24 04:23:00,70.5,66.1,30.00,SE,135,0.0,0.0,86,0.00,,---,0.00,VWS V14.00,2013-06-24 08:23:00,
2013-06-24 04:28:00,70.5,65.8,30.00,SSE,158,1.3,2.7,85,0.00,,---,0.00,VWS V14.00,2013-06-24 08:28:00,
2013-06-24 04:34:00,70.5,65.8,30.00,SSE,158,1.3,2.0,85,0.00,,---,0.00,VWS V14.00,2013-06-24 08:34:00,
2013-06-24 04:39:00,70.3,65.6,30.00,SSE,158,2.0,2.0,85,0.00,,---,0.00,VWS V14.00,2013-06-24 08:39:00,
2013-06-24 04:44:00,70.3,65.6,30.00,South,180,2.9,3.1,85,0.00,,---,0.00,VWS V14.00,2013-06-24 08:44:00,
2013-06-24 04:49:00,70.2,65.4,30.00,South,180,2.0,2.7,85,0.00,,---,0.00,VWS V14.00,2013-06-24 08:49:00,
2013-06-24 04:54:00,70.0,65.3,29.97,SSE,158,0.0,2.2,85,0.00,,---,0.00,VWS V14.00,2013-06-24 08:54:00,
2013-06-24 04:59:00,70.0,65.3,29.97,SSE,158,0.0,0.0,85,0.00,,---,0.00,VWS V14.00,2013-06-24 08:59:00,
2013-06-24 05:04:00,69.8,65.4,29.97,SE,135,1.6,1.6,86,0.00,,---,0.00,VWS V14.00,2013-06-24 09:04:00,
2013-06-24 05:09:00,69.8,65.4,30.00,South,180,0.9,3.4,86,0.00,,---,0.00,VWS V14.00,2013-06-24 09:09:00,
2013-06-24 05:14:00,69.6,65.2,30.00,WSW,248,0.0,0.0,86,0.00,,---,0.00,VWS V14.00,2013-06-24 09:14:00,
2013-06-24 05:19:00,69.6,65.2,30.00,WSW,248,0.0,0.0,86,0.00,,---,0.00,VWS V14.00,2013-06-24 09:19:00,
2013-06-24 05:24:00,69.6,65.2,30.00,WSW,248,0.0,0.0,86,0.00,,---,0.00,VWS V14.00,2013-06-24 09:24:00,
2013-06-24 05:29:00,69.4,65.1,30.00,WSW,248,0.0,0.0,86,0.00,,---,0.00,VWS V14.00,2013-06-24 09:29:00,
2013-06-24 05:35:00,69.3,64.9,30.00,WSW,248,0.0,0.0,86,0.00,,---,0.00,VWS V14.00,2013-06-24 09:35:00,
2013-06-24 05:40:00,69.3,65.2,30.00,WSW,248,0.0,0.0,87,0.00,,---,0.00,VWS V14.00,2013-06-24 09:40:00,
2013-06-24 05:45:00,69.3,65.2,30.00,WSW,248,0.0,0.0,87,0.00,,---,0.00,VWS V14.00,2013-06-24 09:45:00,
2013-06-24 05:50:00,69.1,65.1,30.00,WSW,248,0.0,0.0,87,0.00,,---,0.00,VWS V14.00,2013-06-24 09:50:00,
2013-06-24 05:55:00,69.1,65.1,29.97,WSW,248,0.0,0.0,87,0.00,,---,0.00,VWS V14.00,2013-06-24 09:55:00,
2013-06-24 06:00:00,69.1,65.1,29.97,WSW,248,0.0,0.0,87,0.00,,---,0.00,VWS V14.00,2013-06-24 10:00:00,
2013-06-24 06:05:00,68.9,64.9,29.97,WSW,248,0.0,0.0,87,0.00,,---,0.00,VWS V14.00,2013-06-24 10:05:00,
2013-06-24 06:10:00,68.9,64.9,30.00,WSW,248,0.0,0.0,87,0.00,,---,0.00,VWS V14.00,2013-06-24 10:10:00,
2013-06-24 06:15:00,68.9,64.9,30.00,WSW,248,0.0,0.0,87,0.00,,---,0.00,VWS V14.00,2013-06-24 10:15:00,
2013-06-24 06:20:00,68.9,65.2,30.00,WSW,248,0.0,0.0,88,0.00,,---,0.00,VWS V14.00,2013-06-24 10:20:00,
2013-06-24 06:25:00,68.9,65.2,29.97,WSW,248,0.0,0.0,88,0.00,,---,0.00,VWS V14.00,2013-06-24 10:25:00,
2013-06-24 06:30:00,68.7,65.0,29.97,WSW,248,0.0,0.0,88,0.00,,---,0.00,VWS V14.00,2013-06-24 10:30:00,
2013-06-24 06:36:00,68.7,65.0,29.97,WSW,248,0.0,0.0,88,0.00,,---,0.00,VWS V14.00,2013-06-24 10:36:00,
2013-06-24 06:41:00,68.7,65.0,30.00,WSW,248,0.0,0.0,88,0.00,,---,0.00,VWS V14.00,2013-06-24 10:41:00,
2013-06-24 06:46:00,68.7,65.0,30.00,SSE,158,0.0,0.0,88,0.00,,---,0.00,VWS V14.00,2013-06-24 10:46:00,
2013-06-24 06:51:00,68.9,65.2,30.00,South,180,0.0,0.0,88,0.00,,---,0.00,VWS V14.00,2013-06-24 10:51:00,
2013-06-24 06:56:00,68.9,65.2,30.00,SSE,158,0.0,0.0,88,0.00,,---,0.00,VWS V14.00,2013-06-24 10:56:00,
2013-06-24 07:01:00,69.1,65.7,30.00,SSE,158,2.5,2.5,89,0.00,,---,0.00,VWS V14.00,2013-06-24 11:01:00,
2013-06-24 07:06:00,69.3,65.9,30.00,South,180,0.0,0.0,89,0.00,,---,0.00,VWS V14.00,2013-06-24 11:06:00,
2013-06-24 07:11:00,69.4,66.4,30.00,SE,135,0.0,0.0,90,0.00,,---,0.00,VWS V14.00,2013-06-24 11:11:00,
2013-06-24 07:17:00,69.6,66.6,30.00,SSE,158,0.0,0.0,90,0.00,,---,0.00,VWS V14.00,2013-06-24 11:17:00,
2013-06-24 07:22:00,69.8,66.4,30.00,South,180,0.0,0.0,89,0.00,,---,0.00,VWS V14.00,2013-06-24 11:22:00,
2013-06-24 07:27:00,70.0,66.6,30.00,SSW,202,1.1,1.1,89,0.00,,---,0.00,VWS V14.00,2013-06-24 11:27:00,
2013-06-24 07:32:00,70.2,66.8,30.00,SSE,158,0.0,0.0,89,0.00,,---,0.00,VWS V14.00,2013-06-24 11:32:00,
2013-06-24 07:37:00,70.3,66.9,30.00,South,180,0.0,0.0,89,0.00,,---,0.00,VWS V14.00,2013-06-24 11:37:00,
2013-06-24 07:42:00,70.5,67.1,30.00,South,180,1.3,3.8,89,0.00,,---,0.00,VWS V14.00,2013-06-24 11:42:00,
2013-06-24 07:47:00,70.7,67.3,30.00,South,180,0.0,1.1,89,0.00,,---,0.00,VWS V14.00,2013-06-24 11:47:00,
2013-06-24 07:52:00,70.9,67.2,30.00,SSW,202,0.0,0.0,88,0.00,,---,0.00,VWS V14.00,2013-06-24 11:52:00,
2013-06-24 07:58:00,71.1,67.3,30.00,SSW,202,0.0,0.0,88,0.00,,---,0.00,VWS V14.00,2013-06-24 11:58:00,
2013-06-24 08:03:00,71.4,67.7,30.00,WSW,248,2.0,2.0,88,0.00,,---,0.00,VWS V14.00,2013-06-24 12:03:00,
2013-06-24 08:08:00,71.8,68.0,30.00,SSW,202,1.6,2.5,88,0.00,,---,0.00,VWS V14.00,2013-06-24 12:08:00,
2013-06-24 08:13:00,72.1,68.4,30.03,WSW,248,2.2,2.2,88,0.00,,---,0.00,VWS V14.00,2013-06-24 12:13:00,
2013-06-24 08:18:00,72.3,68.2,30.03,SSW,202,0.0,0.0,87,0.00,,---,0.00,VWS V14.00,2013-06-24 12:18:00,
2013-06-24 08:23:00,72.5,68.4,30.03,West,270,2.0,2.0,87,0.00,,---,0.00,VWS V14.00,2013-06-24 12:23:00,
2013-06-24 08:28:00,72.7,68.6,30.00,WSW,248,1.3,2.0,87,0.00,,---,0.00,VWS V14.00,2013-06-24 12:28:00,
2013-06-24 08:33:00,73.0,68.6,30.00,South,180,2.9,2.9,86,0.00,,---,0.00,VWS V14.00,2013-06-24 12:33:00,
2013-06-24 08:38:00,73.4,68.6,30.00,West,270,1.3,1.6,85,0.00,,---,0.00,VWS V14.00,2013-06-24 12:38:00,
2013-06-24 08:43:00,73.8,69.0,30.00,West,270,0.0,0.0,85,0.00,,---,0.00,VWS V14.00,2013-06-24 12:43:00,
2013-06-24 08:48:00,73.9,68.8,30.00,SW,225,2.2,4.0,84,0.00,,---,0.00,VWS V14.00,2013-06-24 12:48:00,
2013-06-24 08:53:00,74.1,69.0,30.03,South,180,1.6,1.6,84,0.00,,---,0.00,VWS V14.00,2013-06-24 12:53:00,
2013-06-24 08:58:00,74.3,68.8,30.03,SW,225,1.3,1.6,83,0.00,,---,0.00,VWS V14.00,2013-06-24 12:58:00,
2013-06-24 09:03:00,74.3,68.1,30.03,WSW,248,3.8,3.8,81,0.00,,---,0.00,VWS V14.00,2013-06-24 13:03:00,
2013-06-24 09:08:00,74.5,68.3,30.03,NW,315,2.0,3.1,81,0.00,,---,0.00,VWS V14.00,2013-06-24 13:08:00,
2013-06-24 09:13:00,74.5,67.9,30.03,SW,225,2.0,2.9,80,0.00,,---,0.00,VWS V14.00,2013-06-24 13:13:00,
2013-06-24 09:18:00,74.5,67.9,30.03,West,270,1.1,1.6,80,0.00,,---,0.00,VWS V14.00,2013-06-24 13:18:00,
2013-06-24 09:24:00,74.7,68.1,30.03,WSW,248,0.0,0.9,80,0.00,,---,0.00,VWS V14.00,2013-06-24 13:24:00,
2013-06-24 09:29:00,74.8,67.9,30.03,SSW,202,2.7,3.1,79,0.00,,---,0.00,VWS V14.00,2013-06-24 13:29:00,
2013-06-24 09:34:00,75.0,68.1,30.03,West,270,1.1,1.3,79,0.00,,---,0.00,VWS V14.00,2013-06-24 13:34:00,
2013-06-24 09:39:00,75.4,68.4,30.03,WSW,248,0.0,1.6,79,0.00,,---,0.00,VWS V14.00,2013-06-24 13:39:00,
2013-06-24 09:44:00,75.9,68.9,30.03,SW,225,1.3,2.5,79,0.00,,---,0.00,VWS V14.00,2013-06-24 13:44:00,
2013-06-24 09:50:00,76.5,69.1,30.03,West,270,0.0,1.3,78,0.00,,---,0.00,VWS V14.00,2013-06-24 13:50:00,
2013-06-24 09:55:00,76.3,68.9,30.06,WSW,248,1.1,1.1,78,0.00,,---,0.00,VWS V14.00,2013-06-24 13:55:00,
2013-06-24 10:00:00,76.1,68.4,30.06,SSW,202,1.1,1.3,77,0.00,,---,0.00,VWS V14.00,2013-06-24 14:00:00,
2013-06-24 10:05:00,75.9,68.2,30.06,SSW,202,1.3,2.5,77,0.00,,---,0.00,VWS V14.00,2013-06-24 14:05:00,
2013-06-24 10:10:00,75.7,68.4,30.03,SW,225,1.3,2.0,78,0.00,,---,0.00,VWS V14.00,2013-06-24 14:10:00,
2013-06-24 10:15:00,76.3,68.9,30.03,SSW,202,1.3,4.3,78,0.00,,---,0.00,VWS V14.00,2013-06-24 14:15:00,
2013-06-24 10:20:00,76.3,68.6,30.03,NW,315,1.6,3.4,77,0.00,,---,0.00,VWS V14.00,2013-06-24 14:20:00,
2013-06-24 10:25:00,76.3,68.6,30.06,WSW,248,0.9,1.1,77,0.00,,---,0.00,VWS V14.00,2013-06-24 14:25:00,
2013-06-24 10:30:00,76.5,68.7,30.06,WSW,248,1.6,2.5,77,0.00,,---,0.00,VWS V14.00,2013-06-24 14:30:00,
2013-06-24 10:35:00,77.0,69.2,30.06,West,270,0.9,2.9,77,0.00,,---,0.00,VWS V14.00,2013-06-24 14:35:00,
2013-06-24 10:40:00,77.4,69.2,30.06,SE,135,1.1,1.1,76,0.00,,---,0.00,VWS V14.00,2013-06-24 14:40:00,
2013-06-24 10:45:00,77.7,69.6,30.06,NNW,338,0.9,2.7,76,0.00,,---,0.00,VWS V14.00,2013-06-24 14:45:00,
2013-06-24 10:50:00,78.3,70.1,30.06,SSW,202,1.6,2.0,76,0.00,,---,0.00,VWS V14.00,2013-06-24 14:50:00,
2013-06-24 10:55:00,78.6,69.7,30.06,South,180,2.0,2.2,74,0.00,,---,0.00,VWS V14.00,2013-06-24 14:55:00,
2013-06-24 11:01:00,79.0,69.6,30.06,SW,225,2.5,2.5,73,0.00,,---,0.00,VWS V14.00,2013-06-24 15:01:00,
2013-06-24 11:06:00,79.0,69.6,30.06,WSW,248,0.9,1.6,73,0.00,,---,0.00,VWS V14.00,2013-06-24 15:06:00,
2013-06-24 11:11:00,79.2,69.4,30.03,WSW,248,0.0,1.1,72,0.00,,---,0.00,VWS V14.00,2013-06-24 15:11:00,
2013-06-24 11:16:00,80.1,70.2,30.03,South,180,2.5,2.5,72,0.00,,---,0.00,VWS V14.00,2013-06-24 15:16:00,
2013-06-24 11:21:00,80.4,69.8,30.03,West,270,3.1,3.1,70,0.00,,---,0.00,VWS V14.00,2013-06-24 15:21:00,
2013-06-24 11:26:00,80.8,69.7,30.06,SSW,202,2.7,2.9,69,0.00,,---,0.00,VWS V14.00,2013-06-24 15:26:00,
2013-06-24 11:31:00,81.1,69.6,30.06,West,270,2.7,2.7,68,0.00,,---,0.00,VWS V14.00,2013-06-24 15:31:00,
2013-06-24 11:36:00,81.3,69.8,30.06,SW,225,3.1,3.1,68,0.00,,---,0.00,VWS V14.00,2013-06-24 15:36:00,
2013-06-24 11:41:00,81.0,69.0,30.06,West,270,0.0,1.6,67,0.00,,---,0.00,VWS V14.00,2013-06-24 15:41:00,
2013-06-24 11:46:00,81.5,69.9,30.06,SSW,202,2.9,2.9,68,0.00,,---,0.00,VWS V14.00,2013-06-24 15:46:00,
2013-06-24 11:51:00,81.9,69.8,30.06,West,270,0.9,0.9,67,0.00,,---,0.00,VWS V14.00,2013-06-24 15:51:00,
2013-06-24 11:57:00,81.9,69.8,30.03,SSW,202,1.3,1.3,67,0.00,,---,0.00,VWS V14.00,2013-06-24 15:57:00,
2013-06-24 12:02:00,82.0,69.6,30.03,West,270,2.7,2.7,66,0.00,,---,0.00,VWS V14.00,2013-06-24 16:02:00,
2013-06-24 12:07:00,81.7,69.7,30.03,WSW,248,0.9,2.0,67,0.00,,---,0.00,VWS V14.00,2013-06-24 16:07:00,
2013-06-24 12:12:00,82.2,70.2,30.03,SSW,202,1.3,2.0,67,0.00,,---,0.00,VWS V14.00,2013-06-24 16:12:00,
2013-06-24 12:17:00,82.6,70.1,30.03,SW,225,0.9,2.5,66,0.00,,---,0.00,VWS V14.00,2013-06-24 16:17:00,
2013-06-24 12:22:00,82.4,69.0,30.03,WSW,248,0.9,3.1,64,0.00,,---,0.00,VWS V14.00,2013-06-24 16:22:00,
2013-06-24 12:27:00,82.2,69.3,30.03,West,270,2.7,2.9,65,0.00,,---,0.00,VWS V14.00,2013-06-24 16:27:00,
2013-06-24 12:32:00,82.9,69.5,30.03,SSW,202,1.6,4.7,64,0.00,,---,0.00,VWS V14.00,2013-06-24 16:32:00,
2013-06-24 12:37:00,83.7,69.3,30.03,SW,225,1.3,2.0,62,0.00,,---,0.00,VWS V14.00,2013-06-24 16:37:00,
2013-06-24 12:42:00,84.0,70.1,30.03,NW,315,2.0,2.0,63,0.00,,---,0.00,VWS V14.00,2013-06-24 16:42:00,
2013-06-24 12:47:00,84.2,68.3,30.03,WSW,248,1.3,1.6,59,0.00,,---,0.00,VWS V14.00,2013-06-24 16:47:00,
2013-06-24 12:52:00,84.2,68.3,30.03,SSW,202,2.9,2.9,59,0.00,,---,0.00,VWS V14.00,2013-06-24 16:52:00,
2013-06-24 12:57:00,84.6,67.2,30.03,West,270,1.6,6.0,56,0.00,,---,0.00,VWS V14.00,2013-06-24 16:57:00,
2013-06-24 13:02:00,84.7,68.8,30.03,SSW,202,0.0,2.0,59,0.00,,---,0.00,VWS V14.00,2013-06-24 17:02:00,
2013-06-24 13:07:00,85.5,69.0,30.03,SW,225,0.0,1.3,58,0.00,,---,0.00,VWS V14.00,2013-06-24 17:07:00,
2013-06-24 13:12:00,85.5,68.0,30.00,SSW,202,0.9,2.7,56,0.00,,---,0.00,VWS V14.00,2013-06-24 17:12:00,
2013-06-24 13:17:00,85.6,68.2,30.00,SW,225,1.1,2.5,56,0.00,,---,0.00,VWS V14.00,2013-06-24 17:17:00,
2013-06-24 13:22:00,85.6,67.1,30.00,WNW,292,1.3,2.9,54,0.00,,---,0.00,VWS V14.00,2013-06-24 17:22:00,
2013-06-24 13:27:00,85.8,67.8,29.97,NE,45,0.0,2.5,55,0.00,,---,0.00,VWS V14.00,2013-06-24 17:27:00,
2013-06-24 13:32:00,85.5,67.5,29.97,West,270,1.6,1.6,55,0.00,,---,0.00,VWS V14.00,2013-06-24 17:32:00,
2013-06-24 13:37:00,86.0,68.0,29.97,South,180,1.3,1.3,55,0.00,,---,0.00,VWS V14.00,2013-06-24 17:37:00,
2013-06-24 13:42:00,86.0,66.3,30.00,NE,45,0.0,0.9,52,0.00,,---,0.00,VWS V14.00,2013-06-24 17:42:00,
2013-06-24 13:48:00,86.0,66.9,30.00,SW,225,1.3,2.0,53,0.00,,---,0.00,VWS V14.00,2013-06-24 17:48:00,
2013-06-24 13:53:00,86.2,66.5,30.00,West,270,0.9,1.6,52,0.00,,---,0.00,VWS V14.00,2013-06-24 17:53:00,
2013-06-24 13:58:00,86.0,65.2,30.00,SW,225,0.0,2.5,50,0.00,,---,0.00,VWS V14.00,2013-06-24 17:58:00,
2013-06-24 14:03:00,85.5,64.1,30.00,West,270,0.0,0.0,49,0.00,,---,0.00,VWS V14.00,2013-06-24 18:03:00,
2013-06-24 14:08:00,85.3,64.0,30.00,East,90,1.1,2.2,49,0.00,,---,0.00,VWS V14.00,2013-06-24 18:08:00,
2013-06-24 14:13:00,84.9,64.8,29.97,South,180,0.9,1.6,51,0.00,,---,0.00,VWS V14.00,2013-06-24 18:13:00,
2013-06-24 14:18:00,85.3,65.7,29.97,North,0,2.5,2.5,52,0.00,,---,0.00,VWS V14.00,2013-06-24 18:18:00,
2013-06-24 14:24:00,85.5,66.4,29.94,North,0,1.6,1.6,53,0.00,,---,0.00,VWS V14.00,2013-06-24 18:24:00,
2013-06-24 14:29:00,85.1,66.1,29.94,NE,45,2.9,3.1,53,0.00,,---,0.00,VWS V14.00,2013-06-24 18:29:00,
2013-06-24 14:34:00,85.3,65.7,29.94,NNE,22,3.1,3.1,52,0.00,,---,0.00,VWS V14.00,2013-06-24 18:34:00,
2013-06-24 14:39:00,85.6,66.0,29.94,SSW,202,0.9,2.5,52,0.00,,---,0.00,VWS V14.00,2013-06-24 18:39:00,
2013-06-24 14:44:00,85.8,65.6,29.94,South,180,1.1,2.7,51,0.00,,---,0.00,VWS V14.00,2013-06-24 18:44:00,
2013-06-24 14:49:00,85.1,64.4,29.94,SSE,158,2.0,2.2,50,0.00,,---,0.00,VWS V14.00,2013-06-24 18:49:00,
2013-06-24 14:54:00,85.3,65.1,29.97,SSE,158,1.6,2.7,51,0.00,,---,0.00,VWS V14.00,2013-06-24 18:54:00,
2013-06-24 14:59:00,85.6,65.4,29.97,WSW,248,0.0,0.0,51,0.00,,---,0.00,VWS V14.00,2013-06-24 18:59:00,
2013-06-24 15:04:00,85.6,64.3,29.97,WSW,248,0.9,0.9,49,0.00,,---,0.00,VWS V14.00,2013-06-24 19:04:00,
2013-06-24 15:09:00,85.5,64.7,29.94,West,270,0.0,0.0,50,0.00,,---,0.00,VWS V14.00,2013-06-24 19:09:00,
2013-06-24 15:14:00,85.3,65.1,29.94,West,270,0.0,0.0,51,0.00,,---,0.00,VWS V14.00,2013-06-24 19:14:00,
2013-06-24 15:20:00,86.2,66.5,29.94,WSW,248,0.0,0.0,52,0.00,,---,0.00,VWS V14.00,2013-06-24 19:20:00,
2013-06-24 15:25:00,87.1,67.3,29.94,SSE,158,0.0,1.1,52,0.00,,---,0.00,VWS V14.00,2013-06-24 19:25:00,
2013-06-24 15:30:00,87.1,65.6,29.94,WNW,292,0.0,1.1,49,0.00,,---,0.00,VWS V14.00,2013-06-24 19:30:00,
2013-06-24 15:35:00,87.1,66.2,29.94,WSW,248,0.0,0.0,50,0.00,,---,0.00,VWS V14.00,2013-06-24 19:35:00,
2013-06-24 15:40:00,87.1,65.0,29.94,West,270,2.2,2.2,48,0.00,,---,0.00,VWS V14.00,2013-06-24 19:40:00,
2013-06-24 15:46:00,86.4,63.8,29.94,NW,315,1.1,1.3,47,0.00,,---,0.00,VWS V14.00,2013-06-24 19:46:00,
2013-06-24 15:51:00,87.1,65.0,29.94,South,180,0.0,0.0,48,0.00,,---,0.00,VWS V14.00,2013-06-24 19:51:00,
2013-06-24 15:56:00,87.6,66.1,29.94,West,270,2.2,3.8,49,0.00,,---,0.00,VWS V14.00,2013-06-24 19:56:00,
2013-06-24 16:01:00,87.6,66.1,29.94,West,270,1.3,1.3,49,0.00,,---,0.00,VWS V14.00,2013-06-24 20:01:00,
2013-06-24 16:06:00,87.3,65.2,29.94,WSW,248,0.0,0.0,48,0.00,,---,0.00,VWS V14.00,2013-06-24 20:06:00,
2013-06-24 16:11:00,87.1,64.4,29.91,SW,225,0.0,0.0,47,0.00,,---,0.00,VWS V14.00,2013-06-24 20:11:00,
2013-06-24 16:16:00,86.7,64.7,29.91,NW,315,4.0,4.0,48,0.00,,---,0.00,VWS V14.00,2013-06-24 20:16:00,
2013-06-24 16:21:00,86.7,65.3,29.91,WSW,248,2.0,2.0,49,0.00,,---,0.00,VWS V14.00,2013-06-24 20:21:00,
2013-06-24 16:27:00,86.7,65.3,29.94,South,180,1.6,1.6,49,0.00,,---,0.00,VWS V14.00,2013-06-24 20:27:00,
2013-06-24 16:32:00,86.4,63.8,29.94,West,270,2.7,4.0,47,0.00,,---,0.00,VWS V14.00,2013-06-24 20:32:00,
2013-06-24 16:37:00,86.5,63.9,29.94,South,180,1.1,2.2,47,0.00,,---,0.00,VWS V14.00,2013-06-24 20:37:00,
2013-06-24 16:42:00,86.0,63.4,29.91,SSW,202,1.1,1.6,47,0.00,,---,0.00,VWS V14.00,2013-06-24 20:42:00,
2013-06-24 16:47:00,85.6,62.5,29.91,WSW,248,1.1,2.5,46,0.00,,---,0.00,VWS V14.00,2013-06-24 20:47:00,
2013-06-24 16:52:00,85.8,63.9,29.91,SSE,158,3.6,4.3,48,0.00,,---,0.00,VWS V14.00,2013-06-24 20:52:00,
2013-06-24 16:57:00,85.8,63.9,29.91,NW,315,1.1,2.5,48,0.00,,---,0.00,VWS V14.00,2013-06-24 20:57:00,
2013-06-24 17:02:00,86.0,64.0,29.91,South,180,1.3,1.3,48,0.00,,---,0.00,VWS V14.00,2013-06-24 21:02:00,
2013-06-24 17:07:00,85.8,63.9,29.91,SSW,202,1.1,1.1,48,0.00,,---,0.00,VWS V14.00,2013-06-24 21:07:00,
2013-06-24 17:12:00,85.5,63.5,29.88,WSW,248,1.1,1.1,48,0.00,,---,0.00,VWS V14.00,2013-06-24 21:12:00,
2013-06-24 17:17:00,85.3,64.0,29.88,SSE,158,0.9,1.6,49,0.00,,---,0.00,VWS V14.00,2013-06-24 21:17:00,
2013-06-24 17:22:00,85.1,63.8,29.88,SSE,158,1.6,1.6,49,0.00,,---,0.00,VWS V14.00,2013-06-24 21:22:00,
2013-06-24 17:27:00,85.3,64.6,29.88,SW,225,1.6,2.2,50,0.00,,---,0.00,VWS V14.00,2013-06-24 21:27:00,
2013-06-24 17:32:00,85.3,65.7,29.88,WNW,292,1.1,2.5,52,0.00,,---,0.00,VWS V14.00,2013-06-24 21:32:00,
2013-06-24 17:38:00,85.5,65.3,29.88,SSE,158,3.4,4.0,51,0.00,,---,0.00,VWS V14.00,2013-06-24 21:38:00,
2013-06-24 17:43:00,85.3,65.1,29.88,NW,315,2.7,2.7,51,0.00,,---,0.00,VWS V14.00,2013-06-24 21:43:00,
2013-06-24 17:48:00,85.1,64.4,29.88,SSE,158,0.0,1.1,50,0.00,,---,0.00,VWS V14.00,2013-06-24 21:48:00,
2013-06-24 17:53:00,85.1,63.8,29.88,SSE,158,1.1,1.1,49,0.00,,---,0.00,VWS V14.00,2013-06-24 21:53:00,
2013-06-24 17:58:00,85.3,65.1,29.88,SE,135,1.1,1.1,51,0.00,,---,0.00,VWS V14.00,2013-06-24 21:58:00,
2013-06-24 18:04:00,85.3,65.1,29.88,SSW,202,2.0,2.0,51,0.00,,---,0.00,VWS V14.00,2013-06-24 22:04:00,
2013-06-24 18:09:00,85.1,65.0,29.91,SSW,202,2.2,2.2,51,0.00,,---,0.00,VWS V14.00,2013-06-24 22:09:00,
2013-06-24 18:14:00,84.9,64.8,29.91,NNE,22,2.0,2.9,51,0.00,,---,0.00,VWS V14.00,2013-06-24 22:14:00,
2013-06-24 18:19:00,85.1,65.5,29.91,SSW,202,6.0,6.0,52,0.00,,---,0.00,VWS V14.00,2013-06-24 22:19:00,
2013-06-24 18:24:00,84.9,64.2,29.91,SSW,202,1.1,2.0,50,0.00,,---,0.00,VWS V14.00,2013-06-24 22:24:00,
2013-06-24 18:29:00,84.7,63.5,29.91,WSW,248,1.6,1.6,49,0.00,,---,0.00,VWS V14.00,2013-06-24 22:29:00,
2013-06-24 18:34:00,84.6,63.9,29.91,South,180,3.1,3.8,50,0.00,,---,0.00,VWS V14.00,2013-06-24 22:34:00,
2013-06-24 18:39:00,84.4,62.6,29.94,West,270,1.1,1.6,48,0.00,,---,0.00,VWS V14.00,2013-06-24 22:39:00,
2013-06-24 18:44:00,84.2,63.0,29.94,NW,315,1.1,2.5,49,0.00,,---,0.00,VWS V14.00,2013-06-24 22:44:00,
2013-06-24 18:49:00,84.2,63.6,29.94,West,270,1.6,1.6,50,0.00,,---,0.00,VWS V14.00,2013-06-24 22:49:00,
2013-06-24 18:54:00,84.2,63.6,29.94,WNW,292,1.3,1.3,50,0.00,,---,0.00,VWS V14.00,2013-06-24 22:54:00,
2013-06-24 19:00:00,84.0,63.4,29.94,SW,225,2.5,3.4,50,0.00,,---,0.00,VWS V14.00,2013-06-24 23:00:00,
2013-06-24 19:05:00,83.7,63.1,29.94,West,270,1.3,2.7,50,0.00,,---,0.00,VWS V14.00,2013-06-24 23:05:00,
2013-06-24 19:10:00,83.5,63.5,29.94,SW,225,2.5,2.5,51,0.00,,---,0.00,VWS V14.00,2013-06-24 23:10:00,
2013-06-24 19:15:00,83.5,63.5,29.94,WSW,248,1.6,1.6,51,0.00,,---,0.00,VWS V14.00,2013-06-24 23:15:00,
2013-06-24 19:20:00,83.3,63.3,29.94,NW,315,2.2,2.2,51,0.00,,---,0.00,VWS V14.00,2013-06-24 23:20:00,
2013-06-24 19:25:00,83.3,63.3,29.94,West,270,1.6,2.5,51,0.00,,---,0.00,VWS V14.00,2013-06-24 23:25:00,
2013-06-24 19:30:00,83.3,63.9,29.94,SSW,202,2.0,2.7,52,0.00,,---,0.00,VWS V14.00,2013-06-24 23:30:00,
2013-06-24 19:35:00,82.8,63.4,29.94,SW,225,0.0,3.4,52,0.00,,---,0.00,VWS V14.00,2013-06-24 23:35:00,
2013-06-24 19:40:00,82.6,63.7,29.94,ESE,112,2.9,3.6,53,0.00,,---,0.00,VWS V14.00,2013-06-24 23:40:00,
2013-06-24 19:45:00,82.4,64.1,29.94,SSW,202,3.6,3.6,54,0.00,,---,0.00,VWS V14.00,2013-06-24 23:45:00,
2013-06-24 19:50:00,82.2,64.5,29.94,West,270,2.2,2.2,55,0.00,,---,0.00,VWS V14.00,2013-06-24 23:50:00,
2013-06-24 19:55:00,82.2,65.0,29.94,SSE,158,1.6,2.9,56,0.00,,---,0.00,VWS V14.00,2013-06-24 23:55:00,
2013-06-24 20:00:00,81.9,65.2,29.94,SW,225,2.7,2.7,57,0.00,,---,0.00,VWS V14.00,2013-06-25 00:00:00,
2013-06-24 20:05:00,81.5,64.8,29.94,SSW,202,1.3,2.0,57,0.00,,---,0.00,VWS V14.00,2013-06-25 00:05:00,
2013-06-24 20:11:00,81.5,65.3,29.94,South,180,1.3,1.3,58,0.00,,---,0.00,VWS V14.00,2013-06-25 00:11:00,
2013-06-24 20:16:00,81.3,65.6,29.94,WSW,248,2.0,2.0,59,0.00,,---,0.00,VWS V14.00,2013-06-25 00:16:00,
2013-06-24 20:21:00,81.1,65.5,29.94,West,270,0.0,2.2,59,0.00,,---,0.00,VWS V14.00,2013-06-25 00:21:00,
2013-06-24 20:26:00,80.8,65.6,29.91,West,270,1.1,1.6,60,0.00,,---,0.00,VWS V14.00,2013-06-25 00:26:00,
2013-06-24 20:31:00,80.6,65.4,29.91,West,270,0.0,0.0,60,0.00,,---,0.00,VWS V14.00,2013-06-25 00:31:00,
2013-06-24 20:36:00,80.4,65.8,29.91,West,270,0.0,0.0,61,0.00,,---,0.00,VWS V14.00,2013-06-25 00:36:00,
2013-06-24 20:41:00,80.1,65.9,29.91,SW,225,0.9,0.9,62,0.00,,---,0.00,VWS V14.00,2013-06-25 00:41:00,
2013-06-24 20:47:00,80.1,66.3,29.91,SW,225,1.3,2.0,63,0.00,,---,0.00,VWS V14.00,2013-06-25 00:47:00,
2013-06-24 20:52:00,80.1,66.3,29.91,West,270,0.0,1.6,63,0.00,,---,0.00,VWS V14.00,2013-06-25 00:52:00,
2013-06-24 20:57:00,79.9,66.6,29.91,SSE,158,0.0,0.0,64,0.00,,---,0.00,VWS V14.00,2013-06-25 00:57:00,
2013-06-24 21:02:00,79.9,66.6,29.91,WSW,248,0.0,0.0,64,0.00,,---,0.00,VWS V14.00,2013-06-25 01:02:00,
2013-06-24 21:07:00,79.7,66.9,29.91,WSW,248,0.0,0.0,65,0.00,,---,0.00,VWS V14.00,2013-06-25 01:07:00,
2013-06-24 21:12:00,79.5,66.7,29.88,WSW,248,0.0,0.0,65,0.00,,---,0.00,VWS V14.00,2013-06-25 01:12:00,
2013-06-24 21:17:00,79.5,66.7,29.88,SE,135,2.7,2.9,65,0.00,,---,0.00,VWS V14.00,2013-06-25 01:17:00,
2013-06-24 21:22:00,79.3,66.6,29.88,SSE,158,0.0,0.0,65,0.00,,---,0.00,VWS V14.00,2013-06-25 01:22:00,
2013-06-24 21:27:00,78.8,66.9,29.88,SSE,158,2.5,3.1,67,0.00,,---,0.00,VWS V14.00,2013-06-25 01:27:00,
2013-06-24 21:33:00,78.3,66.0,29.88,WSW,248,1.1,1.1,66,0.00,,---,0.00,VWS V14.00,2013-06-25 01:33:00,
2013-06-24 21:38:00,77.9,66.1,29.88,SSW,202,0.0,0.0,67,0.00,,---,0.00,VWS V14.00,2013-06-25 01:38:00,
2013-06-24 21:43:00,77.5,65.7,29.88,SSW,202,0.0,0.0,67,0.00,,---,0.00,VWS V14.00,2013-06-25 01:43:00,
2013-06-24 21:48:00,77.4,66.0,29.88,South,180,0.0,0.0,68,0.00,,---,0.00,VWS V14.00,2013-06-25 01:48:00,
2013-06-24 21:53:00,77.2,65.8,29.88,South,180,0.0,0.0,68,0.00,,---,0.00,VWS V14.00,2013-06-25 01:53:00,
2013-06-24 21:58:00,77.0,66.1,29.85,SSW,202,1.1,2.2,69,0.00,,---,0.00,VWS V14.00,2013-06-25 01:58:00,
2013-06-24 22:03:00,77.0,66.5,29.85,WSW,248,0.0,2.0,70,0.00,,---,0.00,VWS V14.00,2013-06-25 02:03:00,
2013-06-24 22:08:00,76.5,66.8,29.85,SSW,202,2.0,3.4,72,0.00,,---,0.00,VWS V14.00,2013-06-25 02:08:00,
2013-06-24 22:13:00,75.9,65.8,29.88,WSW,248,3.1,3.1,71,0.00,,---,0.00,VWS V14.00,2013-06-25 02:13:00,
2013-06-24 22:18:00,75.4,64.5,29.88,West,270,1.1,1.1,69,0.00,,---,0.00,VWS V14.00,2013-06-25 02:18:00,
2013-06-24 22:24:00,74.7,64.2,29.91,WSW,248,1.6,3.4,70,0.00,,---,0.00,VWS V14.00,2013-06-25 02:24:00,
2013-06-24 22:29:00,74.1,64.1,29.91,SSW,202,0.9,2.7,71,0.00,,---,0.00,VWS V14.00,2013-06-25 02:29:00,
2013-06-24 22:34:00,73.0,63.1,29.91,SW,225,1.6,1.6,71,0.00,,---,0.00,VWS V14.00,2013-06-25 02:34:00,
2013-06-24 22:39:00,72.3,62.8,29.94,SSW,202,2.0,2.9,72,0.00,,---,0.00,VWS V14.00,2013-06-25 02:39:00,
2013-06-24 22:44:00,71.6,62.9,29.94,SSW,202,2.5,2.5,74,0.00,,---,0.00,VWS V14.00,2013-06-25 02:44:00,
2013-06-24 22:49:00,71.2,62.9,29.94,WSW,248,1.6,2.2,75,0.00,,---,0.00,VWS V14.00,2013-06-25 02:49:00,
2013-06-24 22:54:00,70.9,63.0,29.94,WSW,248,2.0,2.0,76,0.00,,---,0.00,VWS V14.00,2013-06-25 02:54:00,
2013-06-24 22:59:00,70.7,62.8,29.94,SW,225,0.0,0.0,76,0.00,,---,0.00,VWS V14.00,2013-06-25 02:59:00,
2013-06-24 23:04:00,70.3,62.8,29.94,West,270,1.3,1.3,77,0.00,,---,0.00,VWS V14.00,2013-06-25 03:04:00,
2013-06-24 23:09:00,70.2,63.0,29.97,SW,225,0.0,0.9,78,0.00,,---,0.00,VWS V14.00,2013-06-25 03:09:00,
2013-06-24 23:14:00,70.0,62.8,29.97,WSW,248,1.6,2.0,78,0.00,,---,0.00,VWS V14.00,2013-06-25 03:14:00,
2013-06-24 23:20:00,69.8,62.6,29.97,West,270,1.3,1.6,78,0.00,,---,0.00,VWS V14.00,2013-06-25 03:20:00,
2013-06-24 23:25:00,69.6,62.8,29.94,SSW,202,0.0,2.5,79,0.00,,---,0.00,VWS V14.00,2013-06-25 03:25:00,
2013-06-24 23:30:00,69.4,63.0,29.94,SW,225,0.0,0.0,80,0.00,,---,0.00,VWS V14.00,2013-06-25 03:30:00,
2013-06-24 23:35:00,69.4,63.0,29.94,SSW,202,0.0,0.0,80,0.00,,---,0.00,VWS V14.00,2013-06-25 03:35:00,
2013-06-24 23:40:00,69.3,62.8,29.94,West,270,1.6,1.6,80,0.00,,---,0.00,VWS V14.00,2013-06-25 03:40:00,
2013-06-24 23:46:00,69.3,62.8,29.94,WSW,248,0.0,0.0,80,0.00,,---,0.00,VWS V14.00,2013-06-25 03:46:00,
2013-06-24 23:51:00,69.1,63.0,29.94,SW,225,0.0,0.0,81,0.00,,---,0.00,VWS V14.00,2013-06-25 03:51:00,
2013-06-24 23:56:00,68.9,62.8,29.97,WSW,248,0.0,1.6,81,0.00,,---,0.00,VWS V14.00,2013-06-25 03:56:00,